首页
METAR-TAF:

METAR-TAF

机场 :

半月灣, 加利福尼亚州, 美国

纬度: 37-30-48N, 经度: 122-30-04W, 海拔: 20米

当前天气观测

该预报发布于14分钟前的01:55 UTC
风速6节,风向西转西北
温度 13°C
湿度 82%
气压 1015 hPa
能見度: 4.8公里
天空无云

METAR: KHAF 210155Z AUTO 30006KT 3SM HZ CLR 13/10 A2998 RMK AO2

时间: 19:09 (02:09 UTC)


TAF: 丢失

超过4000个机场的气象观测和天气预报(METAR&TAF报告)。

可查询的气象台以黄色和红色小点在地图上表示。

将鼠标移到小点上方,可查看气象台名称。

然后点击查看天气观测和预报。

如需切换地图:点击带黑十字的绿色按钮放大地图;点击带横线的绿色按钮缩小地图;或者点击绿色箭头查看邻近地区的地图。


METAR-TAF: